createdAt,value
2023-05-03T00:01:37.555Z,53.80
2023-05-03T00:04:23.321Z,53.80
2023-05-03T00:07:08.861Z,53.90
2023-05-03T00:09:54.192Z,54.20
2023-05-03T00:12:40.841Z,54.00
2023-05-03T00:15:26.509Z,54.50
2023-05-03T00:18:11.938Z,54.20
2023-05-03T00:20:59.826Z,54.50
2023-05-03T00:23:45.398Z,54.10
2023-05-03T00:26:30.847Z,54.20
2023-05-03T00:29:16.781Z,54.20
2023-05-03T00:32:02.139Z,54.20
2023-05-03T00:34:47.497Z,54.30
2023-05-03T00:37:33.058Z,54.60
2023-05-03T00:40:19.180Z,54.50
2023-05-03T00:43:05.068Z,54.60
2023-05-03T00:45:51.129Z,54.90
2023-05-03T00:48:37.543Z,54.90
2023-05-03T00:51:23.677Z,54.60
2023-05-03T00:54:09.756Z,54.50
2023-05-03T00:56:56.974Z,54.50
2023-05-03T00:59:42.990Z,54.00
2023-05-03T01:02:28.723Z,54.40
2023-05-03T01:05:16.450Z,54.70
2023-05-03T01:08:24.847Z,54.70
2023-05-03T01:11:24.143Z,53.70
2023-05-03T01:14:50.105Z,54.20
2023-05-03T01:17:51.326Z,54.50
2023-05-03T01:20:41.253Z,54.30
2023-05-03T01:23:46.008Z,59.10
2023-05-03T01:26:31.787Z,53.90
2023-05-03T01:29:17.383Z,54.40
2023-05-03T01:32:09.604Z,54.40
2023-05-03T01:35:23.903Z,54.20
2023-05-03T01:38:10.444Z,54.20
2023-05-03T01:41:01.842Z,54.40
2023-05-03T01:43:48.698Z,53.80
2023-05-03T01:46:34.452Z,54.50
2023-05-03T01:49:20.048Z,54.70
2023-05-03T01:52:05.686Z,55.20
2023-05-03T01:54:51.074Z,55.00
2023-05-03T01:57:37.068Z,54.90
2023-05-03T02:00:22.996Z,55.00
2023-05-03T02:03:08.752Z,55.00
2023-05-03T02:05:54.667Z,55.60
2023-05-03T02:08:39.991Z,55.50
2023-05-03T02:11:25.390Z,55.40
2023-05-03T02:14:10.953Z,55.80
2023-05-03T02:16:56.569Z,55.90
2023-05-03T02:19:42.393Z,55.80
2023-05-03T02:22:27.837Z,56.00
2023-05-03T02:25:13.431Z,56.20
2023-05-03T02:27:59.212Z,56.10
2023-05-03T02:30:44.636Z,56.20
2023-05-03T02:33:30.169Z,56.30
2023-05-03T02:36:15.452Z,56.00
2023-05-03T02:39:00.823Z,55.70
2023-05-03T02:41:46.292Z,56.20
2023-05-03T02:44:33.605Z,56.90
2023-05-03T02:47:19.597Z,55.70
2023-05-03T02:50:05.825Z,55.80
2023-05-03T02:52:51.598Z,55.50
2023-05-03T02:55:37.206Z,56.00
2023-05-03T02:58:23.031Z,55.70
2023-05-03T03:01:08.466Z,55.40
2023-05-03T03:03:54.033Z,56.50
2023-05-03T03:06:39.755Z,55.80
2023-05-03T03:09:25.188Z,55.60
2023-05-03T03:12:10.622Z,55.40
2023-05-03T03:14:56.106Z,55.30
2023-05-03T03:17:41.725Z,55.60
2023-05-03T03:20:28.211Z,55.60
2023-05-03T03:23:13.878Z,56.00
2023-05-03T03:25:59.533Z,56.10
2023-05-03T03:28:44.929Z,56.10
2023-05-03T03:31:30.814Z,56.40
2023-05-03T03:34:16.130Z,56.90
2023-05-03T03:37:01.842Z,55.90
2023-05-03T03:39:47.617Z,55.90
2023-05-03T03:42:33.008Z,56.40
2023-05-03T03:45:18.878Z,56.40
2023-05-03T03:48:04.541Z,55.90
2023-05-03T03:50:50.963Z,56.20
2023-05-03T03:53:36.966Z,56.20
2023-05-03T03:56:22.940Z,56.40
2023-05-03T03:59:09.261Z,55.80
2023-05-03T04:01:54.830Z,56.30
2023-05-03T04:04:40.797Z,56.10
2023-05-03T04:07:26.275Z,56.20
2023-05-03T04:10:12.085Z,55.80
2023-05-03T04:12:57.904Z,56.20
2023-05-03T04:15:43.858Z,56.30
2023-05-03T04:18:29.288Z,56.10
2023-05-03T04:21:14.849Z,55.50
2023-05-03T04:24:00.604Z,55.70
2023-05-03T04:26:46.175Z,56.50
2023-05-03T04:29:31.698Z,55.70
2023-05-03T04:32:17.261Z,55.90
2023-05-03T04:35:06.246Z,55.50
2023-05-03T04:37:51.683Z,55.40
2023-05-03T04:40:37.318Z,54.80
2023-05-03T04:43:23.045Z,55.20
2023-05-03T04:46:09.047Z,55.00
2023-05-03T04:48:54.750Z,54.60
2023-05-03T04:51:40.207Z,54.50
2023-05-03T04:54:25.651Z,54.50
2023-05-03T04:57:14.455Z,54.80
2023-05-03T05:00:00.803Z,53.60
2023-05-03T05:02:46.660Z,53.40
2023-05-03T05:05:32.919Z,53.60
2023-05-03T05:08:18.334Z,52.80
2023-05-03T05:11:04.463Z,52.90
2023-05-03T05:13:50.150Z,52.50
2023-05-03T05:16:35.742Z,52.00
2023-05-03T05:19:21.863Z,51.90
2023-05-03T05:22:07.388Z,51.90
2023-05-03T05:24:53.114Z,51.50
2023-05-03T05:27:39.026Z,51.60
2023-05-03T05:30:25.339Z,51.70
2023-05-03T05:33:11.241Z,51.60
2023-05-03T05:35:57.138Z,51.60
2023-05-03T05:38:42.562Z,51.60
2023-05-03T05:41:28.137Z,51.70
2023-05-03T05:44:13.833Z,51.60
2023-05-03T05:46:59.765Z,51.50
2023-05-03T05:49:45.299Z,51.30
2023-05-03T05:52:30.699Z,51.30
2023-05-03T05:55:16.650Z,51.20
2023-05-03T05:58:02.366Z,50.70
2023-05-03T06:00:48.443Z,51.00
2023-05-03T06:03:34.551Z,51.10
2023-05-03T06:06:20.159Z,51.10
2023-05-03T06:09:16.801Z,51.20
2023-05-03T06:12:09.098Z,51.10
2023-05-03T06:15:02.289Z,50.90
2023-05-03T06:17:48.505Z,51.40
2023-05-03T06:20:33.986Z,50.80
2023-05-03T06:23:21.538Z,50.70
2023-05-03T06:26:07.385Z,50.80
2023-05-03T06:28:52.835Z,50.70
2023-05-03T06:31:38.309Z,50.70
2023-05-03T06:34:25.401Z,50.50
2023-05-03T06:37:11.223Z,50.50
2023-05-03T06:39:56.582Z,50.40
2023-05-03T06:42:42.164Z,50.00
2023-05-03T06:45:27.539Z,50.00
2023-05-03T06:48:13.194Z,50.00
2023-05-03T06:50:59.041Z,50.10
2023-05-03T06:53:44.371Z,49.80
2023-05-03T06:56:29.776Z,49.60
2023-05-03T06:59:16.704Z,49.70
2023-05-03T07:02:02.731Z,49.50
2023-05-03T07:04:48.609Z,49.70
2023-05-03T07:07:34.534Z,49.90
2023-05-03T07:10:20.526Z,50.10
2023-05-03T07:13:06.183Z,49.80
2023-05-03T07:15:51.553Z,50.00
2023-05-03T07:18:37.487Z,49.60
2023-05-03T07:21:22.833Z,49.60
2023-05-03T07:24:08.657Z,49.90
2023-05-03T07:26:54.753Z,49.70
2023-05-03T07:29:40.163Z,49.70
2023-05-03T07:32:25.766Z,49.70
2023-05-03T07:35:11.629Z,49.60
2023-05-03T07:37:57.183Z,50.30
2023-05-03T07:40:43.150Z,49.90
2023-05-03T07:43:28.642Z,49.40
2023-05-03T07:46:14.188Z,49.20
2023-05-03T07:49:00.117Z,49.20
2023-05-03T07:51:46.009Z,48.50
2023-05-03T07:54:31.791Z,49.30
2023-05-03T07:57:17.213Z,49.60
2023-05-03T08:00:04.108Z,49.20
2023-05-03T08:02:50.323Z,49.50
2023-05-03T08:05:36.168Z,49.10
2023-05-03T08:08:21.644Z,48.50
2023-05-03T08:11:07.031Z,49.00
2023-05-03T08:13:52.578Z,49.30
2023-05-03T08:16:38.289Z,48.80
2023-05-03T08:19:23.827Z,48.90
2023-05-03T08:22:09.553Z,49.20
2023-05-03T08:24:54.842Z,49.00
2023-05-03T08:27:40.267Z,48.80
2023-05-03T08:30:26.097Z,48.60
2023-05-03T08:33:11.588Z,48.80
2023-05-03T08:35:57.094Z,48.90
2023-05-03T08:38:42.522Z,48.00
2023-05-03T08:41:31.979Z,48.60
2023-05-03T08:44:29.913Z,48.70
2023-05-03T08:47:16.917Z,46.50
2023-05-03T08:50:05.438Z,47.60
2023-05-03T08:52:51.416Z,48.40
2023-05-03T08:55:37.714Z,48.90
2023-05-03T08:58:24.495Z,48.40
2023-05-03T09:01:10.435Z,48.80
2023-05-03T09:03:56.060Z,48.70
2023-05-03T09:06:41.941Z,48.80
2023-05-03T09:09:36.230Z,48.50
2023-05-03T09:12:38.615Z,47.80
2023-05-03T09:15:24.026Z,46.80
2023-05-03T09:18:22.234Z,48.40
2023-05-03T09:21:09.095Z,45.50
2023-05-03T09:23:55.023Z,48.50
2023-05-03T09:26:40.801Z,48.50
2023-05-03T09:29:31.874Z,48.40
2023-05-03T09:32:19.330Z,48.40
2023-05-03T09:35:11.384Z,48.50
2023-05-03T09:37:57.284Z,47.20
2023-05-03T09:40:48.746Z,47.80
2023-05-03T09:43:35.385Z,47.50
2023-05-03T09:46:20.791Z,48.30
2023-05-03T09:49:07.042Z,47.70
2023-05-03T09:51:52.958Z,48.00
2023-05-03T09:54:39.820Z,48.30
2023-05-03T09:57:26.719Z,48.20
2023-05-03T10:00:13.665Z,48.60
2023-05-03T10:03:08.623Z,47.50
2023-05-03T10:05:55.409Z,47.20
2023-05-03T10:09:07.230Z,46.20
2023-05-03T10:11:55.128Z,47.80
2023-05-03T10:14:46.312Z,47.20
2023-05-03T10:17:47.848Z,46.70
2023-05-03T10:20:42.669Z,45.40
2023-05-03T10:23:28.290Z,42.70
2023-05-03T10:26:15.502Z,45.90
2023-05-03T10:29:01.501Z,40.90
2023-05-03T10:31:48.485Z,45.20
2023-05-03T10:34:36.181Z,44.10
2023-05-03T10:37:27.579Z,42.80
2023-05-03T10:40:18.763Z,37.80
2023-05-03T10:43:04.248Z,43.80
2023-05-03T10:45:51.681Z,44.50
2023-05-03T10:48:37.756Z,46.30
2023-05-03T10:51:29.427Z,47.80
2023-05-03T10:54:15.400Z,45.90
2023-05-03T10:57:00.665Z,47.80
2023-05-03T10:59:49.391Z,50.80
2023-05-03T11:03:23.884Z,51.50
2023-05-03T11:06:09.646Z,51.40
2023-05-03T11:08:55.424Z,51.90
2023-05-03T11:20:38.986Z,41.80
2023-05-03T11:23:30.562Z,53.30
2023-05-03T11:26:16.097Z,51.20
2023-05-03T11:29:01.380Z,54.80
2023-05-03T11:31:46.985Z,52.80
2023-05-03T11:34:33.032Z,51.30
2023-05-03T11:37:18.745Z,53.50
2023-05-03T11:40:06.832Z,50.70
2023-05-03T11:42:59.500Z,55.80
2023-05-03T11:45:47.101Z,56.30
2023-05-03T11:48:32.998Z,58.20
2023-05-03T11:51:25.819Z,57.30
2023-05-03T11:54:24.150Z,44.70
2023-05-03T11:57:14.001Z,56.70
2023-05-03T12:00:16.658Z,53.80
2023-05-03T12:03:02.430Z,40.50
2023-05-03T12:05:52.222Z,53.20
2023-05-03T12:08:41.690Z,51.30
2023-05-03T12:11:31.895Z,53.50
2023-05-03T12:14:19.775Z,53.70
2023-05-03T12:17:07.364Z,48.20
2023-05-03T12:19:54.467Z,53.50
2023-05-03T12:22:43.572Z,52.20
2023-05-03T12:25:33.823Z,50.80
2023-05-03T12:28:21.411Z,50.90
2023-05-03T12:31:07.229Z,54.50
2023-05-03T12:36:43.584Z,53.70
2023-05-03T12:39:32.518Z,53.70
2023-05-03T12:42:22.025Z,52.60
2023-05-03T12:45:12.422Z,53.70
2023-05-03T12:47:59.471Z,50.60
2023-05-03T12:50:45.605Z,50.80
2023-05-03T12:53:31.969Z,52.20
2023-05-03T12:56:17.878Z,51.80
2023-05-03T12:59:35.451Z,49.10
2023-05-03T13:05:06.285Z,49.80
2023-05-03T13:07:57.225Z,50.50
2023-05-03T13:10:43.531Z,48.60
2023-05-03T13:13:29.291Z,50.20
2023-05-03T13:16:14.833Z,51.30
2023-05-03T13:19:00.712Z,50.80
2023-05-03T13:21:48.016Z,49.50
2023-05-03T13:24:33.492Z,48.70
2023-05-03T13:27:19.050Z,50.30
2023-05-03T13:30:05.252Z,51.90
2023-05-03T13:32:50.775Z,55.50
2023-05-03T13:35:36.645Z,57.70
2023-05-03T13:38:22.226Z,57.50
2023-05-03T13:41:08.261Z,58.20
2023-05-03T13:43:53.947Z,58.00
2023-05-03T13:46:40.892Z,56.50
2023-05-03T13:49:27.061Z,55.70
2023-05-03T13:52:12.647Z,55.60
2023-05-03T13:54:58.108Z,54.40
2023-05-03T13:57:43.548Z,54.20
2023-05-03T14:00:30.968Z,52.00
2023-05-03T14:03:17.784Z,53.00
2023-05-03T14:06:03.751Z,53.50
2023-05-03T14:08:50.535Z,52.80
2023-05-03T14:11:36.187Z,52.60
2023-05-03T14:14:21.802Z,52.30
2023-05-03T14:17:07.541Z,51.40
2023-05-03T14:19:53.382Z,51.40
2023-05-03T14:22:38.928Z,51.20
2023-05-03T14:25:27.072Z,49.10
2023-05-03T14:28:12.456Z,50.80
2023-05-03T14:30:58.259Z,50.70
2023-05-03T14:33:43.996Z,50.20
2023-05-03T14:36:29.650Z,49.40
2023-05-03T14:39:15.367Z,49.80
2023-05-03T14:42:00.894Z,49.10
2023-05-03T14:44:46.145Z,50.10
2023-05-03T14:47:33.348Z,50.00
2023-05-03T14:50:19.082Z,49.60
2023-05-03T14:53:04.653Z,49.70
2023-05-03T14:55:50.183Z,49.90
2023-05-03T14:58:35.421Z,49.80
2023-05-03T15:01:21.742Z,49.70
2023-05-03T15:04:07.535Z,49.70
2023-05-03T15:06:53.047Z,49.70
2023-05-03T15:09:38.566Z,49.90
2023-05-03T15:12:24.053Z,49.90
2023-05-03T15:15:10.334Z,49.70
2023-05-03T15:17:56.195Z,49.80
2023-05-03T15:20:41.529Z,49.70
2023-05-03T15:23:27.028Z,49.40
2023-05-03T15:26:12.547Z,49.70
2023-05-03T15:28:58.455Z,49.80
2023-05-03T15:31:44.207Z,49.80
2023-05-03T15:34:30.072Z,49.30
2023-05-03T15:37:15.585Z,49.70
2023-05-03T15:40:01.125Z,49.70
2023-05-03T15:42:47.215Z,49.80
2023-05-03T15:45:33.119Z,50.00
2023-05-03T15:48:19.067Z,50.00
2023-05-03T15:51:05.571Z,49.90
2023-05-03T15:53:51.925Z,50.00
2023-05-03T15:56:37.391Z,50.20
2023-05-03T15:59:22.965Z,50.30
2023-05-03T16:02:08.820Z,50.30
2023-05-03T16:04:54.799Z,50.30
2023-05-03T16:07:40.092Z,50.30
2023-05-03T16:10:25.550Z,50.40
2023-05-03T16:13:11.079Z,50.40
2023-05-03T16:15:57.127Z,50.60
2023-05-03T16:18:42.417Z,50.50
2023-05-03T16:21:28.015Z,50.70
2023-05-03T16:24:13.503Z,50.80
2023-05-03T16:26:59.584Z,50.60
2023-05-03T16:29:45.355Z,50.70
2023-05-03T16:32:31.028Z,50.70
2023-05-03T16:35:18.283Z,50.80
2023-05-03T16:38:04.044Z,50.80
2023-05-03T16:40:49.483Z,50.90
2023-05-03T16:43:34.821Z,50.90
2023-05-03T16:46:20.219Z,50.90
2023-05-03T16:49:06.890Z,50.80
2023-05-03T16:51:52.781Z,50.90
2023-05-03T16:54:38.131Z,51.10
2023-05-03T16:57:23.560Z,51.00
2023-05-03T17:00:10.450Z,51.00
2023-05-03T17:02:56.270Z,51.00
2023-05-03T17:05:42.004Z,51.00
2023-05-03T17:08:27.671Z,51.10
2023-05-03T17:11:14.725Z,51.10
2023-05-03T17:14:00.258Z,51.20
2023-05-03T17:16:45.974Z,51.40
2023-05-03T17:19:32.003Z,51.30
2023-05-03T17:22:17.451Z,51.40
2023-05-03T17:25:03.166Z,51.30
2023-05-03T17:27:48.877Z,51.50
2023-05-03T17:30:34.707Z,51.90
2023-05-03T17:33:20.097Z,52.60
2023-05-03T17:36:06.183Z,53.40
2023-05-03T17:38:52.012Z,53.40
2023-05-03T17:41:37.731Z,53.50
2023-05-03T17:44:23.328Z,53.50
2023-05-03T17:47:08.764Z,53.70
2023-05-03T17:49:54.199Z,53.80
2023-05-03T17:52:39.844Z,53.60
2023-05-03T17:55:25.068Z,53.80
2023-05-03T17:58:10.471Z,54.20
2023-05-03T18:00:57.022Z,54.40
2023-05-03T18:03:42.904Z,54.80
2023-05-03T18:06:29.115Z,55.00
2023-05-03T18:09:14.556Z,55.40
2023-05-03T18:12:00.101Z,55.20
2023-05-03T18:14:46.045Z,55.40
2023-05-03T18:17:31.784Z,55.00
2023-05-03T18:20:17.782Z,55.90
2023-05-03T18:23:03.414Z,55.80
2023-05-03T18:25:49.505Z,56.20
2023-05-03T18:28:35.316Z,56.10
2023-05-03T18:31:20.771Z,55.80
2023-05-03T18:34:06.200Z,55.90
2023-05-03T18:36:51.736Z,56.20
2023-05-03T18:39:37.029Z,55.80
2023-05-03T18:42:23.029Z,55.90
2023-05-03T18:45:09.351Z,56.20
2023-05-03T18:47:54.987Z,56.20
2023-05-03T18:50:40.327Z,56.50
2023-05-03T18:53:26.311Z,56.50
2023-05-03T18:56:11.991Z,56.70
2023-05-03T18:58:57.531Z,56.50
2023-05-03T19:01:43.067Z,56.50
2023-05-03T19:04:28.546Z,56.50
2023-05-03T19:07:14.009Z,57.00
2023-05-03T19:09:59.498Z,57.00
2023-05-03T19:12:44.950Z,56.50
2023-05-03T19:15:30.859Z,57.10
2023-05-03T19:18:16.910Z,56.70
2023-05-03T19:21:06.382Z,56.60
2023-05-03T19:23:52.405Z,57.40
2023-05-03T19:26:38.352Z,57.20
2023-05-03T19:29:23.936Z,57.20
2023-05-03T19:32:09.730Z,57.30
2023-05-03T19:34:55.139Z,57.40
2023-05-03T19:37:40.519Z,57.20
2023-05-03T19:40:25.971Z,57.50
2023-05-03T19:43:11.534Z,57.40
2023-05-03T19:45:57.041Z,57.10
2023-05-03T19:48:42.390Z,58.00
2023-05-03T19:51:27.969Z,57.00
2023-05-03T19:54:13.869Z,57.10
2023-05-03T19:57:04.278Z,56.90
2023-05-03T19:59:49.540Z,56.70
2023-05-03T20:02:36.181Z,57.70
2023-05-03T20:05:22.101Z,57.30
2023-05-03T20:08:07.598Z,57.20
2023-05-03T20:10:53.730Z,57.30
2023-05-03T20:13:38.970Z,57.20
2023-05-03T20:16:26.823Z,57.50
2023-05-03T20:19:12.300Z,57.40
2023-05-03T20:21:57.632Z,57.20
2023-05-03T20:24:43.367Z,57.60
2023-05-03T20:27:28.699Z,57.50
2023-05-03T20:30:14.692Z,57.50
2023-05-03T20:33:00.700Z,57.60
2023-05-03T20:35:46.456Z,58.10
2023-05-03T20:38:32.046Z,57.70
2023-05-03T20:41:17.462Z,57.60
2023-05-03T20:44:03.196Z,57.80
2023-05-03T20:46:48.788Z,58.00
2023-05-03T20:49:34.137Z,58.30
2023-05-03T20:52:19.693Z,58.50
2023-05-03T20:55:05.772Z,59.30
2023-05-03T20:57:51.416Z,58.30
2023-05-03T21:00:36.811Z,58.20
2023-05-03T21:03:24.839Z,58.60
2023-05-03T21:06:10.546Z,58.50
2023-05-03T21:08:55.786Z,59.60
2023-05-03T21:11:41.204Z,58.90
2023-05-03T21:14:26.737Z,58.90
2023-05-03T21:17:12.092Z,60.00
2023-05-03T21:19:58.041Z,59.70
2023-05-03T21:22:43.360Z,59.80
2023-05-03T21:25:28.767Z,59.10
2023-05-03T21:28:14.418Z,59.10
2023-05-03T21:30:59.868Z,59.20
2023-05-03T21:33:45.388Z,59.50
2023-05-03T21:36:30.841Z,59.10
2023-05-03T21:39:16.428Z,59.50
2023-05-03T21:42:01.994Z,59.70
2023-05-03T21:44:50.618Z,59.40
2023-05-03T21:47:36.400Z,58.90
2023-05-03T21:50:22.151Z,59.50
2023-05-03T21:53:07.829Z,59.90
2023-05-03T21:55:53.915Z,60.30
2023-05-03T21:58:39.265Z,60.30
2023-05-03T22:01:24.620Z,60.60
2023-05-03T22:04:10.163Z,60.30
2023-05-03T22:06:55.384Z,60.50
2023-05-03T22:09:41.001Z,60.60
2023-05-03T22:12:26.366Z,60.70
2023-05-03T22:15:12.029Z,61.40
2023-05-03T22:17:57.851Z,60.80
2023-05-03T22:20:43.129Z,61.10
2023-05-03T22:23:28.655Z,61.50
2023-05-03T22:26:14.178Z,61.80
2023-05-03T22:28:59.632Z,61.90
2023-05-03T22:31:45.102Z,61.30
2023-05-03T22:34:30.531Z,62.30
2023-05-03T22:37:15.980Z,62.50
2023-05-03T22:40:01.818Z,62.80
2023-05-03T22:42:47.445Z,63.10
2023-05-03T22:45:32.900Z,63.20
2023-05-03T22:48:18.739Z,62.80
2023-05-03T22:51:05.046Z,62.40
2023-05-03T22:53:50.448Z,62.10
2023-05-03T22:56:36.066Z,63.30
2023-05-03T22:59:21.370Z,63.30
2023-05-03T23:02:06.828Z,63.70
2023-05-03T23:04:52.971Z,62.80
2023-05-03T23:07:38.370Z,62.60
2023-05-03T23:10:26.867Z,62.70
2023-05-03T23:13:12.794Z,62.30
2023-05-03T23:15:58.267Z,62.90
2023-05-03T23:18:43.699Z,64.20
2023-05-03T23:21:29.185Z,64.90
2023-05-03T23:24:14.874Z,65.30
2023-05-03T23:27:00.886Z,63.80
2023-05-03T23:29:46.345Z,64.00
2023-05-03T23:32:32.344Z,64.60
2023-05-03T23:35:18.422Z,64.00
2023-05-03T23:38:04.270Z,65.40
2023-05-03T23:40:49.941Z,65.40
2023-05-03T23:43:35.445Z,64.20
2023-05-03T23:46:20.822Z,65.20
2023-05-03T23:49:06.231Z,65.10
2023-05-03T23:51:51.719Z,64.40
2023-05-03T23:54:37.256Z,65.50
2023-05-03T23:57:22.654Z,64.30
